createdAt,value
2022-09-23T00:01:35.492Z,78.00
2022-09-23T00:04:04.065Z,77.10
2022-09-23T00:06:33.220Z,77.21
2022-09-23T00:09:01.812Z,77.47
2022-09-23T00:11:32.162Z,78.16
2022-09-23T00:14:01.909Z,77.46
2022-09-23T00:16:32.850Z,77.90
2022-09-23T00:19:02.310Z,77.72
2022-09-23T00:21:30.853Z,78.30
2022-09-23T00:23:59.983Z,78.45
2022-09-23T00:26:28.932Z,77.80
2022-09-23T00:28:58.844Z,78.17
2022-09-23T00:31:28.623Z,77.75
2022-09-23T00:33:57.985Z,77.60
2022-09-23T00:36:27.653Z,77.99
2022-09-23T00:38:56.962Z,77.68
2022-09-23T00:41:26.543Z,77.28
2022-09-23T00:43:58.193Z,77.62
2022-09-23T00:46:31.653Z,77.65
2022-09-23T00:49:06.194Z,77.53
2022-09-23T00:51:39.694Z,78.00
2022-09-23T00:54:08.774Z,78.70
2022-09-23T00:56:40.603Z,77.83
2022-09-23T00:59:10.981Z,78.36
2022-09-23T01:01:41.533Z,78.38
2022-09-23T01:04:10.202Z,77.97
2022-09-23T01:06:38.783Z,77.99
2022-09-23T01:09:07.665Z,78.03
2022-09-23T01:11:49.254Z,78.45
2022-09-23T01:14:38.282Z,78.14
2022-09-23T01:17:13.713Z,77.48
2022-09-23T01:20:20.614Z,78.71
2022-09-23T01:22:57.515Z,77.91
2022-09-23T01:25:47.582Z,78.70
2022-09-23T01:28:42.663Z,78.77
2022-09-23T01:31:19.592Z,78.55
2022-09-23T01:33:55.436Z,78.40
2022-09-23T01:36:27.814Z,77.83
2022-09-23T01:39:02.388Z,78.11
2022-09-23T01:41:51.944Z,78.91
2022-09-23T01:44:27.007Z,78.21
2022-09-23T01:47:01.581Z,78.89
2022-09-23T01:49:35.883Z,78.40
2022-09-23T01:52:14.993Z,79.01
2022-09-23T01:54:51.722Z,77.98
2022-09-23T01:57:26.771Z,78.57
2022-09-23T02:00:00.815Z,79.03
2022-09-23T02:02:36.849Z,78.42
2022-09-23T02:05:12.754Z,78.56
2022-09-23T02:07:46.233Z,78.54
2022-09-23T02:10:22.053Z,78.56
2022-09-23T02:12:52.474Z,78.44
2022-09-23T02:15:25.083Z,78.58
2022-09-23T02:18:00.175Z,78.59
2022-09-23T02:20:32.043Z,78.75
2022-09-23T02:23:06.530Z,78.87
2022-09-23T02:25:41.742Z,78.95
2022-09-23T02:28:16.433Z,78.49
2022-09-23T02:30:54.702Z,79.29
2022-09-23T02:33:30.324Z,78.49
2022-09-23T02:36:07.425Z,78.87
2022-09-23T02:38:40.862Z,79.21
2022-09-23T02:41:16.273Z,78.80
2022-09-23T02:43:51.874Z,78.65
2022-09-23T02:46:21.563Z,78.88
2022-09-23T02:48:57.114Z,78.58
2022-09-23T02:51:29.067Z,78.80
2022-09-23T02:53:59.351Z,78.33
2022-09-23T02:56:29.293Z,79.12
2022-09-23T02:58:59.341Z,78.84
2022-09-23T03:01:39.603Z,79.15
2022-09-23T03:04:19.200Z,78.69
2022-09-23T03:06:56.453Z,79.04
2022-09-23T03:09:31.454Z,78.83
2022-09-23T03:12:13.431Z,78.98
2022-09-23T03:14:52.272Z,78.84
2022-09-23T03:17:27.740Z,78.73
2022-09-23T03:20:03.062Z,78.94
2022-09-23T03:22:36.531Z,79.04
2022-09-23T03:25:09.701Z,79.11
2022-09-23T03:27:42.253Z,79.36
2022-09-23T03:30:12.124Z,78.98
2022-09-23T03:32:43.563Z,79.10
2022-09-23T03:35:15.800Z,79.12
2022-09-23T03:37:50.580Z,79.13
2022-09-23T03:40:24.774Z,79.23
2022-09-23T03:42:56.365Z,78.83
2022-09-23T03:45:29.667Z,79.06
2022-09-23T03:47:58.596Z,78.83
2022-09-23T03:50:29.161Z,79.25
2022-09-23T03:52:57.722Z,78.75
2022-09-23T03:55:26.248Z,79.04
2022-09-23T03:57:55.774Z,78.55
2022-09-23T04:00:24.385Z,78.85
2022-09-23T04:02:52.973Z,78.63
2022-09-23T04:05:21.474Z,78.42
2022-09-23T04:07:51.435Z,78.70
2022-09-23T04:10:20.498Z,78.29
2022-09-23T04:12:49.224Z,78.07
2022-09-23T04:15:17.965Z,78.19
2022-09-23T04:17:46.596Z,78.72
2022-09-23T04:20:15.476Z,78.71
2022-09-23T04:22:43.903Z,78.52
2022-09-23T04:25:13.925Z,78.49
2022-09-23T04:27:42.494Z,78.79
2022-09-23T04:30:11.973Z,78.47
2022-09-23T04:32:40.603Z,78.27
2022-09-23T04:35:09.816Z,78.77
2022-09-23T04:37:38.427Z,78.53
2022-09-23T04:40:08.534Z,78.67
2022-09-23T04:42:38.514Z,78.87
2022-09-23T04:45:07.942Z,79.15
2022-09-23T04:47:37.054Z,78.79
2022-09-23T04:50:06.166Z,79.39
2022-09-23T04:52:34.847Z,79.23
2022-09-23T04:55:03.375Z,79.10
2022-09-23T04:57:32.218Z,79.33
2022-09-23T05:00:02.626Z,79.00
2022-09-23T05:02:32.351Z,78.57
2022-09-23T05:05:01.170Z,78.06
2022-09-23T05:07:30.250Z,78.22
2022-09-23T05:09:58.735Z,77.83
2022-09-23T05:12:27.455Z,78.69
2022-09-23T05:14:56.128Z,78.16
2022-09-23T05:17:26.081Z,77.93
2022-09-23T05:19:54.828Z,77.94
2022-09-23T05:22:23.378Z,77.96
2022-09-23T05:24:52.017Z,78.15
2022-09-23T05:27:20.689Z,77.57
2022-09-23T05:29:50.615Z,78.40
2022-09-23T05:32:18.876Z,78.33
2022-09-23T05:34:49.030Z,78.22
2022-09-23T05:37:17.568Z,78.45
2022-09-23T05:39:46.037Z,78.41
2022-09-23T05:42:14.689Z,77.86
2022-09-23T05:44:43.657Z,78.55
2022-09-23T05:47:12.427Z,78.91
2022-09-23T05:49:58.772Z,78.18
2022-09-23T05:52:30.605Z,78.54
2022-09-23T05:54:59.135Z,78.95
2022-09-23T05:57:27.706Z,78.32
2022-09-23T05:59:56.408Z,78.74
2022-09-23T06:02:25.354Z,78.06
2022-09-23T06:04:53.868Z,78.65
2022-09-23T06:07:22.486Z,77.74
2022-09-23T06:09:54.376Z,78.48
2022-09-23T06:12:23.450Z,77.76
2022-09-23T06:14:53.178Z,77.91
2022-09-23T06:17:21.548Z,77.84
2022-09-23T06:19:50.039Z,77.65
2022-09-23T06:22:18.876Z,76.91
2022-09-23T06:24:47.337Z,77.18
2022-09-23T06:27:17.326Z,76.73
2022-09-23T06:29:45.869Z,76.90
2022-09-23T06:32:14.317Z,76.58
2022-09-23T06:34:51.704Z,76.07
2022-09-23T06:37:21.046Z,75.71
2022-09-23T06:39:49.718Z,75.64
2022-09-23T06:42:19.830Z,75.21
2022-09-23T06:44:48.350Z,74.72
2022-09-23T06:47:17.136Z,74.71
2022-09-23T06:49:45.720Z,74.14
2022-09-23T06:52:14.251Z,73.70
2022-09-23T06:54:42.804Z,72.74
2022-09-23T06:57:11.483Z,72.41
2022-09-23T06:59:41.928Z,71.98
2022-09-23T07:02:11.273Z,72.05
2022-09-23T07:04:40.110Z,71.53
2022-09-23T07:07:10.562Z,71.34
2022-09-23T07:09:39.150Z,71.19
2022-09-23T07:12:08.358Z,71.27
2022-09-23T07:14:36.857Z,71.25
2022-09-23T07:17:07.200Z,71.10
2022-09-23T07:19:36.726Z,70.83
2022-09-23T07:22:05.586Z,70.63
2022-09-23T07:24:34.894Z,70.44
2022-09-23T07:27:03.445Z,69.88
2022-09-23T07:29:41.741Z,69.54
2022-09-23T07:32:17.741Z,69.10
2022-09-23T07:34:47.636Z,68.51
2022-09-23T07:37:16.241Z,68.14
2022-09-23T07:39:45.375Z,68.54
2022-09-23T07:42:15.326Z,68.10
2022-09-23T07:44:48.238Z,67.56
2022-09-23T07:47:18.446Z,67.12
2022-09-23T07:49:47.150Z,66.98
2022-09-23T07:52:15.770Z,66.58
2022-09-23T07:54:44.339Z,65.98
2022-09-23T07:57:12.953Z,65.63
2022-09-23T07:59:43.477Z,64.75
2022-09-23T08:02:16.731Z,64.54
2022-09-23T08:04:46.891Z,64.38
2022-09-23T08:07:15.736Z,63.79
2022-09-23T08:09:45.906Z,63.93
2022-09-23T08:12:18.630Z,63.79
2022-09-23T08:14:47.508Z,63.16
2022-09-23T08:17:16.168Z,62.83
2022-09-23T08:19:44.666Z,62.77
2022-09-23T08:22:15.903Z,61.90
2022-09-23T08:24:44.407Z,61.93
2022-09-23T08:27:12.917Z,62.53
2022-09-23T08:29:41.670Z,62.04
2022-09-23T08:32:10.290Z,61.50
2022-09-23T08:34:38.841Z,61.36
2022-09-23T08:37:12.218Z,61.41
2022-09-23T08:39:42.148Z,61.83
2022-09-23T08:42:20.262Z,61.35
2022-09-23T08:44:54.067Z,60.45
2022-09-23T08:47:26.490Z,59.23
2022-09-23T08:50:01.797Z,58.99
2022-09-23T08:52:37.197Z,59.71
2022-09-23T08:55:13.332Z,59.85
2022-09-23T08:58:02.314Z,58.44
2022-09-23T09:00:42.311Z,58.02
2022-09-23T09:03:22.370Z,57.21
2022-09-23T09:05:54.421Z,56.16
2022-09-23T09:08:29.983Z,55.76
2022-09-23T09:11:01.028Z,55.01
2022-09-23T09:13:33.639Z,55.66
2022-09-23T09:16:23.949Z,55.78
2022-09-23T09:19:18.442Z,53.55
2022-09-23T09:21:53.225Z,52.44
2022-09-23T09:24:29.240Z,53.12
2022-09-23T09:26:59.625Z,52.64
2022-09-23T09:29:36.224Z,51.63
2022-09-23T09:32:18.911Z,50.43
2022-09-23T09:34:54.911Z,49.71
2022-09-23T09:37:31.787Z,50.05
2022-09-23T09:40:01.101Z,49.79
2022-09-23T09:42:40.231Z,49.65
2022-09-23T09:45:20.043Z,50.29
2022-09-23T09:47:57.069Z,50.97
2022-09-23T09:50:45.039Z,50.66
2022-09-23T09:53:22.725Z,50.30
2022-09-23T09:56:05.963Z,50.56
2022-09-23T09:58:44.186Z,50.90
2022-09-23T10:01:25.272Z,49.98
2022-09-23T10:03:59.233Z,49.04
2022-09-23T10:06:31.971Z,48.76
2022-09-23T10:09:14.041Z,48.99
2022-09-23T10:11:43.382Z,49.81
2022-09-23T10:14:19.159Z,49.22
2022-09-23T10:17:04.105Z,48.63
2022-09-23T10:19:33.637Z,47.52
2022-09-23T10:22:06.751Z,47.03
2022-09-23T10:24:37.629Z,46.73
2022-09-23T10:27:10.072Z,46.18
2022-09-23T10:29:43.292Z,46.60
2022-09-23T10:32:22.074Z,46.70
2022-09-23T10:34:54.752Z,46.59
2022-09-23T10:37:32.127Z,46.17
2022-09-23T10:40:12.102Z,45.49
2022-09-23T10:43:08.435Z,45.69
2022-09-23T10:45:51.495Z,45.74
2022-09-23T10:48:28.919Z,45.24
2022-09-23T10:50:59.928Z,44.86
2022-09-23T10:53:42.553Z,44.34
2022-09-23T10:56:25.073Z,44.17
2022-09-23T10:59:11.400Z,44.43
2022-09-23T11:01:50.852Z,43.88
2022-09-23T11:04:39.255Z,42.85
2022-09-23T11:07:19.617Z,43.28
2022-09-23T11:10:23.245Z,43.39
2022-09-23T11:13:08.289Z,42.65
2022-09-23T11:15:46.536Z,42.14
2022-09-23T11:18:44.563Z,41.54
2022-09-23T11:21:42.832Z,37.65
2022-09-23T11:24:29.345Z,36.66
2022-09-23T11:27:10.204Z,36.20
2022-09-23T11:29:59.474Z,36.40
2022-09-23T11:32:54.453Z,37.51
2022-09-23T11:35:29.154Z,38.34
2022-09-23T11:38:03.599Z,38.09
2022-09-23T11:40:35.478Z,38.41
2022-09-23T11:43:08.697Z,36.25
2022-09-23T11:45:43.579Z,35.30
2022-09-23T11:48:17.636Z,34.80
2022-09-23T11:50:52.067Z,32.89
2022-09-23T11:53:30.377Z,32.59
2022-09-23T11:56:08.071Z,33.10
2022-09-23T11:58:46.602Z,34.06
2022-09-23T12:01:35.112Z,34.47
2022-09-23T12:04:20.116Z,34.63
2022-09-23T12:06:56.204Z,33.08
2022-09-23T12:09:53.863Z,32.89
2022-09-23T12:12:28.968Z,32.21
2022-09-23T12:15:04.163Z,31.82
2022-09-23T12:17:52.820Z,31.41
2022-09-23T12:20:43.486Z,32.00
2022-09-23T12:23:29.978Z,32.30
2022-09-23T12:26:02.397Z,32.72
2022-09-23T12:28:36.266Z,33.08
2022-09-23T12:31:10.586Z,33.21
2022-09-23T12:33:39.831Z,33.20
2022-09-23T12:36:10.865Z,34.00
2022-09-23T12:38:48.642Z,34.80
2022-09-23T12:41:26.218Z,34.66
2022-09-23T12:44:02.960Z,34.79
2022-09-23T12:46:31.760Z,36.03
2022-09-23T12:49:03.812Z,36.48
2022-09-23T12:51:33.243Z,36.94
2022-09-23T12:57:03.047Z,37.55
2022-09-23T12:59:34.830Z,38.37
2022-09-23T13:02:24.411Z,40.10
2022-09-23T13:05:10.706Z,40.27
2022-09-23T13:07:45.373Z,40.29
2022-09-23T13:10:19.803Z,39.95
2022-09-23T13:12:50.016Z,40.65
2022-09-23T13:15:28.895Z,40.20
2022-09-23T13:18:23.376Z,40.00
2022-09-23T13:20:57.175Z,40.55
2022-09-23T13:23:26.967Z,40.78
2022-09-23T13:25:58.542Z,40.20
2022-09-23T13:28:34.765Z,40.36
2022-09-23T13:31:06.523Z,41.08
2022-09-23T13:33:45.354Z,41.15
2022-09-23T13:36:16.477Z,42.58
2022-09-23T13:38:47.095Z,42.22
2022-09-23T13:41:19.495Z,41.95
2022-09-23T13:43:52.095Z,41.98
2022-09-23T13:46:23.292Z,42.82
2022-09-23T13:48:55.199Z,42.39
2022-09-23T13:51:26.393Z,42.50
2022-09-23T13:53:56.747Z,42.31
2022-09-23T13:56:28.172Z,41.38
2022-09-23T13:59:21.758Z,40.83
2022-09-23T14:01:50.635Z,40.13
2022-09-23T14:04:25.562Z,39.64
2022-09-23T14:06:54.896Z,39.04
2022-09-23T14:09:28.741Z,39.37
2022-09-23T14:12:00.932Z,38.71
2022-09-23T14:14:31.658Z,38.18
2022-09-23T14:17:00.718Z,38.33
2022-09-23T14:19:29.425Z,38.29
2022-09-23T14:21:59.258Z,38.18
2022-09-23T14:24:34.930Z,38.52
2022-09-23T14:27:16.871Z,38.36
2022-09-23T14:29:49.534Z,38.02
2022-09-23T14:32:24.002Z,38.48
2022-09-23T14:34:55.086Z,38.31
2022-09-23T14:37:39.139Z,38.42
2022-09-23T14:40:14.866Z,38.85
2022-09-23T14:42:47.080Z,39.88
2022-09-23T14:45:21.130Z,40.61
2022-09-23T14:47:53.157Z,41.28
2022-09-23T14:50:34.214Z,41.87
2022-09-23T14:53:02.989Z,41.87
2022-09-23T14:55:32.503Z,43.42
2022-09-23T14:58:06.397Z,43.72
2022-09-23T15:00:36.460Z,42.97
2022-09-23T15:03:16.128Z,41.91
2022-09-23T15:05:48.058Z,43.18
2022-09-23T15:08:20.459Z,46.70
2022-09-23T15:10:50.619Z,47.21
2022-09-23T15:13:23.056Z,46.26
2022-09-23T15:15:55.542Z,45.54
2022-09-23T15:18:26.518Z,48.66
2022-09-23T15:20:58.666Z,50.99
2022-09-23T15:23:35.893Z,52.27
2022-09-23T15:26:07.903Z,52.72
2022-09-23T15:28:36.967Z,52.55
2022-09-23T15:31:09.382Z,51.07
2022-09-23T15:33:38.177Z,51.50
2022-09-23T15:36:08.571Z,53.63
2022-09-23T15:38:43.599Z,55.16
2022-09-23T15:41:13.922Z,55.22
2022-09-23T15:43:43.081Z,56.46
2022-09-23T15:46:19.212Z,57.22
2022-09-23T15:48:58.777Z,57.91
2022-09-23T15:51:27.922Z,57.23
2022-09-23T15:53:56.585Z,57.75
2022-09-23T15:56:27.328Z,58.66
2022-09-23T15:58:56.089Z,59.14
2022-09-23T16:01:29.752Z,60.25
2022-09-23T16:04:01.433Z,60.85
2022-09-23T16:06:29.983Z,61.10
2022-09-23T16:08:58.711Z,61.32
2022-09-23T16:11:32.103Z,61.18
2022-09-23T16:14:01.786Z,61.20
2022-09-23T16:16:32.074Z,61.10
2022-09-23T16:19:00.827Z,61.07
2022-09-23T16:21:30.441Z,60.73
2022-09-23T16:23:59.495Z,60.61
2022-09-23T16:26:31.118Z,58.84
2022-09-23T16:29:01.081Z,57.91
2022-09-23T16:31:31.570Z,59.01
2022-09-23T16:34:02.817Z,59.50
2022-09-23T16:36:33.919Z,59.44
2022-09-23T16:39:07.059Z,59.42
2022-09-23T16:41:35.939Z,59.19
2022-09-23T16:44:07.819Z,59.93
2022-09-23T16:46:38.016Z,60.16
2022-09-23T16:49:06.872Z,60.90
2022-09-23T16:51:38.697Z,61.04
2022-09-23T16:54:10.462Z,61.25
2022-09-23T16:56:45.592Z,61.72
2022-09-23T16:59:14.527Z,62.23
2022-09-23T17:02:01.611Z,62.79
2022-09-23T17:04:30.404Z,63.57
2022-09-23T17:06:59.410Z,64.08
2022-09-23T17:09:30.460Z,64.33
2022-09-23T17:12:08.107Z,64.98
2022-09-23T17:14:36.963Z,65.43
2022-09-23T17:17:06.896Z,66.20
2022-09-23T17:19:35.870Z,65.83
2022-09-23T17:22:04.447Z,66.73
2022-09-23T17:24:33.037Z,67.41
2022-09-23T17:27:01.723Z,67.69
2022-09-23T17:29:30.787Z,68.16
2022-09-23T17:31:59.388Z,68.42
2022-09-23T17:34:30.121Z,69.03
2022-09-23T17:36:59.068Z,68.86
2022-09-23T17:39:27.661Z,69.54
2022-09-23T17:41:58.932Z,69.56
2022-09-23T17:44:27.770Z,69.66
2022-09-23T17:46:56.424Z,69.68
2022-09-23T17:49:25.309Z,69.81
2022-09-23T17:51:56.071Z,70.08
2022-09-23T17:54:24.849Z,70.46
2022-09-23T17:56:53.402Z,70.72
2022-09-23T17:59:21.931Z,70.85
2022-09-23T18:01:50.454Z,71.14
2022-09-23T18:04:19.401Z,71.05
2022-09-23T18:06:48.641Z,71.52
2022-09-23T18:09:19.303Z,71.65
2022-09-23T18:11:50.045Z,72.30
2022-09-23T18:14:21.535Z,72.10
2022-09-23T18:16:52.345Z,72.46
2022-09-23T18:19:25.001Z,72.62
2022-09-23T18:21:56.309Z,72.60
2022-09-23T18:24:34.001Z,72.43
2022-09-23T18:27:03.123Z,72.85
2022-09-23T18:29:31.884Z,72.31
2022-09-23T18:32:00.554Z,72.35
2022-09-23T18:34:29.699Z,72.00
2022-09-23T18:36:58.722Z,72.26
2022-09-23T18:39:30.425Z,71.90
2022-09-23T18:41:59.164Z,72.12
2022-09-23T18:44:27.964Z,72.26
2022-09-23T18:46:56.670Z,72.12
2022-09-23T18:49:36.392Z,72.17
2022-09-23T18:52:07.067Z,72.46
2022-09-23T18:54:37.806Z,72.05
2022-09-23T18:57:06.566Z,72.73
2022-09-23T18:59:35.401Z,72.99
2022-09-23T19:02:04.371Z,73.35
2022-09-23T19:04:33.183Z,73.52
2022-09-23T19:07:01.974Z,74.02
2022-09-23T19:09:30.644Z,73.69
2022-09-23T19:12:02.690Z,74.04
2022-09-23T19:14:31.787Z,74.45
2022-09-23T19:17:00.425Z,74.04
2022-09-23T19:19:32.547Z,74.37
2022-09-23T19:22:01.906Z,74.75
2022-09-23T19:24:30.636Z,74.23
2022-09-23T19:27:03.536Z,74.78
2022-09-23T19:29:32.314Z,74.99
2022-09-23T19:32:01.094Z,75.17
2022-09-23T19:34:31.200Z,75.04
2022-09-23T19:36:59.966Z,75.18
2022-09-23T19:39:31.905Z,75.36
2022-09-23T19:42:02.267Z,74.88
2022-09-23T19:44:31.077Z,74.46
2022-09-23T19:47:00.508Z,74.46
2022-09-23T19:49:31.127Z,74.57
2022-09-23T19:52:00.641Z,74.19
2022-09-23T19:54:29.378Z,74.52
2022-09-23T19:56:59.647Z,73.53
2022-09-23T19:59:30.142Z,73.26
2022-09-23T20:01:58.990Z,73.42
2022-09-23T20:04:27.727Z,73.51
2022-09-23T20:06:56.505Z,73.08
2022-09-23T20:09:25.136Z,73.52
2022-09-23T20:11:53.907Z,73.51
2022-09-23T20:14:24.757Z,73.94
2022-09-23T20:16:55.098Z,73.62
2022-09-23T20:19:24.256Z,74.37
2022-09-23T20:22:13.088Z,74.62
2022-09-23T20:24:41.846Z,74.00
2022-09-23T20:27:09.463Z,74.53
2022-09-23T20:29:38.973Z,74.29
2022-09-23T20:32:09.498Z,73.57
2022-09-23T20:34:38.397Z,73.75
2022-09-23T20:37:07.077Z,73.53
2022-09-23T20:39:36.538Z,74.39
2022-09-23T20:42:09.559Z,73.86
2022-09-23T20:44:38.409Z,73.01
2022-09-23T20:47:08.515Z,74.24
2022-09-23T20:49:38.278Z,73.66
2022-09-23T20:52:07.457Z,72.97
2022-09-23T20:54:39.126Z,74.06
2022-09-23T20:57:08.000Z,73.37
2022-09-23T20:59:37.168Z,72.91
2022-09-23T21:02:07.248Z,73.62
2022-09-23T21:04:37.497Z,72.87
2022-09-23T21:07:06.180Z,73.35
2022-09-23T21:09:34.898Z,72.50
2022-09-23T21:12:04.072Z,72.51
2022-09-23T21:14:33.015Z,73.46
2022-09-23T21:17:01.635Z,73.10
2022-09-23T21:19:30.529Z,73.51
2022-09-23T21:22:00.519Z,73.16
2022-09-23T21:27:19.177Z,73.04
2022-09-23T21:29:47.827Z,73.75
2022-09-23T21:32:16.488Z,73.83
2022-09-23T21:34:45.060Z,73.82
2022-09-23T21:37:15.187Z,73.87
2022-09-23T21:40:04.170Z,73.26
2022-09-23T21:42:32.898Z,73.81
2022-09-23T21:45:01.902Z,73.79
2022-09-23T21:47:32.645Z,72.96
2022-09-23T21:50:01.553Z,73.71
2022-09-23T21:52:31.673Z,73.42
2022-09-23T21:55:00.379Z,73.11
2022-09-23T21:57:31.839Z,73.48
2022-09-23T22:00:00.412Z,73.38
2022-09-23T22:02:29.023Z,73.77
2022-09-23T22:04:57.978Z,73.15
2022-09-23T22:07:26.819Z,73.63
2022-09-23T22:09:57.246Z,73.02
2022-09-23T22:12:24.897Z,73.60
2022-09-23T22:14:53.558Z,74.33
2022-09-23T22:17:24.232Z,73.95
2022-09-23T22:19:52.926Z,73.88
2022-09-23T22:22:21.517Z,73.33
2022-09-23T22:24:51.717Z,74.12
2022-09-23T22:27:21.998Z,74.14
2022-09-23T22:30:00.709Z,74.35
2022-09-23T22:32:39.219Z,74.33
2022-09-23T22:35:09.156Z,74.86
2022-09-23T22:37:39.539Z,74.71
2022-09-23T22:40:11.241Z,74.94
2022-09-23T22:42:41.896Z,74.61
2022-09-23T22:45:11.960Z,73.80
2022-09-23T22:47:44.359Z,74.17
2022-09-23T22:50:14.628Z,74.28
2022-09-23T22:52:43.322Z,75.20
2022-09-23T22:55:12.609Z,74.52
2022-09-23T22:57:42.758Z,74.32
2022-09-23T23:00:13.718Z,74.49
2022-09-23T23:02:42.789Z,74.45
2022-09-23T23:05:11.861Z,75.08
2022-09-23T23:07:40.682Z,74.92
2022-09-23T23:10:10.541Z,74.50
2022-09-23T23:12:39.656Z,74.76
2022-09-23T23:15:13.011Z,74.50
2022-09-23T23:17:43.775Z,74.71
2022-09-23T23:20:12.485Z,75.31
2022-09-23T23:22:41.174Z,75.20
2022-09-23T23:25:10.939Z,75.08
2022-09-23T23:27:39.674Z,75.62
2022-09-23T23:30:10.974Z,74.39
2022-09-23T23:32:39.680Z,74.82
2022-09-23T23:35:09.218Z,75.65
2022-09-23T23:37:37.878Z,75.31
2022-09-23T23:40:07.426Z,76.24
2022-09-23T23:42:35.972Z,75.37
2022-09-23T23:45:04.947Z,75.78
2022-09-23T23:47:36.026Z,75.59
2022-09-23T23:50:05.760Z,75.83
2022-09-23T23:52:34.371Z,75.67
2022-09-23T23:55:03.305Z,75.21
2022-09-23T23:57:31.877Z,75.31
